Garden City Regional Airport Garden City US
ICAO: KGCK
IATA: GCK
Category: Medium
Scheduled Services: Yes

Elevation: 2891 ft
TransAlt. 18000 ft.

Airport Communications:
ASOS:121.325
KANSAS CITY CNTR:125.2
CTAF:118.15
GND:119
WICHITA RDO:122.45
TWR:118.15
UNICOM:122.95

KGCK Zoom In..

If you have problems with the map follow the link
https://www.worldairports.se/pages/airport.php?
ICAO=KGCK

Runways:

(A) RW 12 length 5700 ft width 100 ft
---- / hdg 126

(B) RW 17 length 7299 ft width 100 ft
---- / hdg 171

(C) RW 30 length 5700 ft width 100 ft
---- / hdg 306

(D) RW 35 length 7299 ft width 100 ft
ILS 109.90 / hdg 351

Location; KGCK
Day. 21 / Time. 18.54 Zulu
* Altimeter: 30.13
* Temperature: 22° c. 71.6°f.
* Wind from: 210° Speed 22 kn with Gusts up to 32 kn.
Dewpoint: 06° c.
Visibility: 10 Statute Miles.
Clouds: Clear (automated report).

KGCK 211854Z 21022G32KT 10SM CLR 22/06 A3013 RMK AO2 PK WND 23037/1842 SLP191 T02170056


Wind From 210°
Speed 22 kn.

 
 
jpsmedia.com for Web Design worldairports.se 2018   terms of use